Time,TemperatureF,DewpointF,PressureIn,WindDirection,WindDirectionDegrees,WindSpeedMPH,WindSpeedGustMPH,Humidity,HourlyPrecipIn,Conditions,Clouds,dailyrainin,SoftwareType,DateUTC
2013-04-23 00:08:00,41.1,35.0,30.51,SE,143,2.0,6.0,78,0.00,,,0.00,weatherlink.com 1.10,2013-04-23 04:08:00,
2013-04-23 00:23:00,40.8,35.0,30.50,ESE,117,3.0,7.0,79,0.00,,,0.00,weatherlink.com 1.10,2013-04-23 04:23:00,
2013-04-23 00:38:00,40.9,35.0,30.50,SE,142,3.0,6.0,79,0.00,,,0.00,weatherlink.com 1.10,2013-04-23 04:38:00,
2013-04-23 00:53:00,41.2,35.0,30.49,ESE,122,3.0,7.0,79,0.00,,,0.00,weatherlink.com 1.10,2013-04-23 04:53:00,
2013-04-23 01:08:00,41.3,35.0,30.49,SSE,148,4.0,7.0,79,0.00,,,0.00,weatherlink.com 1.10,2013-04-23 05:08:00,
2013-04-23 01:23:00,41.3,35.0,30.48,SSE,160,4.0,6.0,78,0.00,,,0.00,weatherlink.com 1.10,2013-04-23 05:23:00,
2013-04-23 01:38:00,41.4,35.0,30.47,SE,139,3.0,7.0,79,0.00,,,0.00,weatherlink.com 1.10,2013-04-23 05:38:00,
2013-04-23 01:53:00,41.5,35.0,30.46,ESE,120,3.0,6.0,78,0.00,,,0.00,weatherlink.com 1.10,2013-04-23 05:53:00,
2013-04-23 02:08:00,41.6,35.0,30.46,ESE,109,4.0,6.0,78,0.00,,,0.00,weatherlink.com 1.10,2013-04-23 06:08:00,
2013-04-23 02:23:00,41.6,36.0,30.45,SE,146,3.0,6.0,79,0.00,,,0.00,weatherlink.com 1.10,2013-04-23 06:23:00,
2013-04-23 02:38:00,41.5,35.0,30.44,SSE,149,2.0,4.0,79,0.00,,,0.00,weatherlink.com 1.10,2013-04-23 06:38:00,
2013-04-23 02:53:00,41.5,35.0,30.43,ESE,117,4.0,6.0,79,0.00,,,0.00,weatherlink.com 1.10,2013-04-23 06:53:00,
2013-04-23 03:08:00,41.5,36.0,30.43,SE,125,3.0,5.0,80,0.00,,,0.00,weatherlink.com 1.10,2013-04-23 07:08:00,
2013-04-23 03:23:00,41.4,36.0,30.43,ESE,105,3.0,5.0,80,0.00,,,0.00,weatherlink.com 1.10,2013-04-23 07:23:00,
2013-04-23 03:38:00,41.3,36.0,30.43,ESE,109,5.0,6.0,81,0.00,,,0.00,weatherlink.com 1.10,2013-04-23 07:38:00,
2013-04-23 03:53:00,41.3,36.0,30.42,ESE,122,2.0,6.0,81,0.00,,,0.00,weatherlink.com 1.10,2013-04-23 07:53:00,
2013-04-23 04:08:00,41.3,36.0,30.42,SE,129,3.0,6.0,81,0.00,,,0.00,weatherlink.com 1.10,2013-04-23 08:08:00,
2013-04-23 04:23:00,41.2,36.0,30.42,SE,131,3.0,5.0,82,0.00,,,0.00,weatherlink.com 1.10,2013-04-23 08:23:00,
2013-04-23 04:38:00,41.0,36.0,30.41,ESE,121,3.0,6.0,83,0.00,,,0.00,weatherlink.com 1.10,2013-04-23 08:38:00,
2013-04-23 04:53:00,41.1,36.0,30.41,SE,139,5.0,6.0,83,0.00,,,0.00,weatherlink.com 1.10,2013-04-23 08:53:00,
2013-04-23 05:08:00,41.1,36.0,30.41,SE,124,4.0,7.0,83,0.00,,,0.00,weatherlink.com 1.10,2013-04-23 09:08:00,
2013-04-23 05:23:00,41.1,37.0,30.40,ESE,110,4.0,6.0,84,0.00,,,0.00,weatherlink.com 1.10,2013-04-23 09:23:00,
2013-04-23 05:38:00,40.0,36.0,30.40,SE,135,3.0,7.0,84,0.00,,,0.00,weatherlink.com 1.10,2013-04-23 09:38:00,
2013-04-23 05:53:00,-999.0,-99.9,30.39,North,-999,-999.0,-999.0,-999,0.00,,,0.00,weatherlink.com 1.10,2013-04-23 09:53:00,
2013-04-23 06:08:00,-999.0,-99.9,30.39,North,-999,-999.0,-999.0,-999,0.00,,,0.00,weatherlink.com 1.10,2013-04-23 10:08:00,
2013-04-23 06:24:00,-999.0,-99.9,30.39,North,-999,-999.0,-999.0,-999,0.00,,,0.00,weatherlink.com 1.10,2013-04-23 10:24:00,
2013-04-23 06:39:00,-999.0,-99.9,30.39,North,-999,-999.0,-999.0,-999,0.00,,,0.00,weatherlink.com 1.10,2013-04-23 10:39:00,
2013-04-23 06:54:00,-999.0,-99.9,30.38,North,-999,-999.0,-999.0,-999,0.00,,,0.00,weatherlink.com 1.10,2013-04-23 10:54:00,
2013-04-23 07:09:00,-999.0,-99.9,30.38,North,-999,-999.0,-999.0,-999,0.00,,,0.00,weatherlink.com 1.10,2013-04-23 11:09:00,
2013-04-23 07:24:00,-999.0,-99.9,30.38,North,-999,-999.0,-999.0,-999,0.00,,,0.00,weatherlink.com 1.10,2013-04-23 11:24:00,
2013-04-23 07:39:00,-999.0,-99.9,30.38,North,-999,-999.0,-999.0,-999,0.00,,,0.00,weatherlink.com 1.10,2013-04-23 11:39:00,
2013-04-23 07:54:00,42.0,39.0,30.38,SE,143,4.0,7.0,90,0.00,,,0.00,weatherlink.com 1.10,2013-04-23 11:54:00,
2013-04-23 08:09:00,42.0,40.0,30.37,ESE,120,4.0,7.0,91,0.00,,,0.00,weatherlink.com 1.10,2013-04-23 12:09:00,
2013-04-23 08:24:00,41.9,40.0,30.37,ESE,113,3.0,7.0,92,0.00,,,0.00,weatherlink.com 1.10,2013-04-23 12:24:00,
2013-04-23 08:39:00,41.9,40.0,30.37,ESE,119,2.0,6.0,93,0.00,,,0.00,weatherlink.com 1.10,2013-04-23 12:39:00,
2013-04-23 08:54:00,42.1,40.0,30.36,SE,141,3.0,5.0,93,0.00,,,0.00,weatherlink.com 1.10,2013-04-23 12:54:00,
2013-04-23 09:09:00,42.2,40.0,30.36,SSW,200,3.0,7.0,93,0.00,,,0.00,weatherlink.com 1.10,2013-04-23 13:09:00,
2013-04-23 09:24:00,42.5,41.0,30.36,SE,129,4.0,8.0,93,0.00,,,0.00,weatherlink.com 1.10,2013-04-23 13:24:00,
2013-04-23 09:39:00,42.7,41.0,30.36,SSW,193,2.0,8.0,93,0.00,,,0.00,weatherlink.com 1.10,2013-04-23 13:39:00,
2013-04-23 09:54:00,42.8,41.0,30.35,SSE,154,5.0,8.0,93,0.00,,,0.00,weatherlink.com 1.10,2013-04-23 13:54:00,
2013-04-23 10:09:00,42.9,41.0,30.35,ESE,112,5.0,8.0,93,0.00,,,0.00,weatherlink.com 1.10,2013-04-23 14:09:00,
2013-04-23 10:24:00,43.1,41.0,30.35,SE,133,3.0,6.0,93,0.00,,,0.00,weatherlink.com 1.10,2013-04-23 14:24:00,
2013-04-23 10:39:00,43.3,42.0,30.35,SE,129,5.0,7.0,93,0.00,,,0.00,weatherlink.com 1.10,2013-04-23 14:39:00,
2013-04-23 10:54:00,43.4,42.0,30.34,ESE,122,4.0,7.0,93,0.00,,,0.00,weatherlink.com 1.10,2013-04-23 14:54:00,
2013-04-23 11:09:00,43.6,42.0,30.33,SE,132,3.0,6.0,93,0.00,,,0.00,weatherlink.com 1.10,2013-04-23 15:09:00,
2013-04-23 11:24:00,43.9,42.0,30.32,ESE,115,3.0,6.0,93,0.00,,,0.00,weatherlink.com 1.10,2013-04-23 15:24:00,
2013-04-23 11:39:00,44.2,42.0,30.31,SE,142,2.0,7.0,92,0.00,,,0.00,weatherlink.com 1.10,2013-04-23 15:39:00,
2013-04-23 11:54:00,44.4,42.0,30.31,South,170,3.0,7.0,92,0.00,,,0.00,weatherlink.com 1.10,2013-04-23 15:54:00,
2013-04-23 12:10:00,45.2,43.0,30.30,SE,141,5.0,7.0,91,0.00,,,0.00,weatherlink.com 1.10,2013-04-23 16:10:00,
2013-04-23 12:25:00,45.6,43.0,30.30,SSE,156,2.0,7.0,90,0.00,,,0.00,weatherlink.com 1.10,2013-04-23 16:25:00,
2013-04-23 12:40:00,46.1,43.0,30.29,SSE,164,3.0,7.0,89,0.00,,,0.00,weatherlink.com 1.10,2013-04-23 16:40:00,
2013-04-23 12:55:00,46.0,43.0,30.28,East,88,3.0,8.0,89,0.00,,,0.00,weatherlink.com 1.10,2013-04-23 16:55:00,
2013-04-23 13:10:00,46.0,43.0,30.27,SE,141,2.0,6.0,89,0.00,,,0.00,weatherlink.com 1.10,2013-04-23 17:10:00,
2013-04-23 13:25:00,45.9,43.0,30.26,SE,139,2.0,7.0,89,0.00,,,0.00,weatherlink.com 1.10,2013-04-23 17:25:00,
2013-04-23 13:40:00,45.8,43.0,30.25,SSE,166,5.0,12.0,89,0.00,,,0.00,weatherlink.com 1.10,2013-04-23 17:40:00,
2013-04-23 13:55:00,46.1,43.0,30.24,SE,141,2.0,9.0,89,0.00,,,0.00,weatherlink.com 1.10,2013-04-23 17:55:00,
2013-04-23 14:10:00,46.5,43.0,30.23,SW,232,1.0,8.0,88,0.00,,,0.00,weatherlink.com 1.10,2013-04-23 18:10:00,
2013-04-23 14:25:00,46.7,43.0,30.22,South,186,2.0,8.0,88,0.00,,,0.00,weatherlink.com 1.10,2013-04-23 18:25:00,
2013-04-23 14:40:00,47.1,44.0,30.21,SW,228,3.0,6.0,88,0.00,,,0.00,weatherlink.com 1.10,2013-04-23 18:40:00,
2013-04-23 14:55:00,47.0,43.0,30.20,SSE,149,3.0,7.0,87,0.00,,,0.00,weatherlink.com 1.10,2013-04-23 18:55:00,
2013-04-23 15:10:00,47.0,43.0,30.20,ESE,107,2.0,7.0,87,0.00,,,0.00,weatherlink.com 1.10,2013-04-23 19:10:00,
2013-04-23 15:25:00,47.1,44.0,30.19,South,188,2.0,7.0,87,0.00,,,0.00,weatherlink.com 1.10,2013-04-23 19:25:00,
2013-04-23 15:40:00,46.9,43.0,30.18,SSW,199,3.0,8.0,87,0.00,,,0.00,weatherlink.com 1.10,2013-04-23 19:40:00,
2013-04-23 15:55:00,46.4,43.0,30.18,SSE,166,3.0,8.0,88,0.00,,,0.00,weatherlink.com 1.10,2013-04-23 19:55:00,
2013-04-23 16:10:00,46.0,43.0,30.18,SE,131,8.0,8.0,89,0.00,,,0.00,weatherlink.com 1.10,2013-04-23 20:10:00,
2013-04-23 16:25:00,45.8,43.0,30.18,ESE,120,3.0,6.0,89,0.00,,,0.00,weatherlink.com 1.10,2013-04-23 20:25:00,
2013-04-23 16:40:00,46.1,43.0,30.16,SSE,162,4.0,12.0,89,0.00,,,0.00,weatherlink.com 1.10,2013-04-23 20:40:00,
2013-04-23 16:55:00,46.2,43.0,30.16,SSE,162,5.0,9.0,88,0.00,,,0.00,weatherlink.com 1.10,2013-04-23 20:55:00,
2013-04-23 17:10:00,46.1,43.0,30.16,SSE,148,3.0,8.0,88,0.00,,,0.00,weatherlink.com 1.10,2013-04-23 21:10:00,
2013-04-23 17:25:00,46.1,43.0,30.15,ESE,122,1.0,7.0,88,0.00,,,0.00,weatherlink.com 1.10,2013-04-23 21:25:00,
2013-04-23 17:40:00,46.1,43.0,30.15,SE,146,4.0,8.0,88,0.00,,,0.00,weatherlink.com 1.10,2013-04-23 21:40:00,
2013-04-23 17:55:00,46.1,43.0,30.14,ESE,120,4.0,7.0,88,0.00,,,0.00,weatherlink.com 1.10,2013-04-23 21:55:00,
2013-04-23 18:10:00,45.8,43.0,30.13,South,169,1.0,8.0,88,0.00,,,0.00,weatherlink.com 1.10,2013-04-23 22:10:00,
2013-04-23 18:25:00,45.6,42.0,30.13,SSE,153,3.0,12.0,88,0.00,,,0.00,weatherlink.com 1.10,2013-04-23 22:25:00,
2013-04-23 18:40:00,45.5,42.0,30.12,South,189,3.0,8.0,88,0.00,,,0.00,weatherlink.com 1.10,2013-04-23 22:40:00,
2013-04-23 18:55:00,45.3,42.0,30.12,SSE,167,2.0,8.0,88,0.00,,,0.00,weatherlink.com 1.10,2013-04-23 22:55:00,
2013-04-23 19:10:00,45.1,42.0,30.11,SW,225,4.0,7.0,88,0.00,,,0.00,weatherlink.com 1.10,2013-04-23 23:10:00,
2013-04-23 19:25:00,45.1,42.0,30.10,NNW,343,3.0,9.0,88,0.00,,,0.00,weatherlink.com 1.10,2013-04-23 23:25:00,
2013-04-23 19:40:00,44.9,42.0,30.11,South,183,2.0,7.0,88,0.00,,,0.00,weatherlink.com 1.10,2013-04-23 23:40:00,
2013-04-23 19:56:00,44.9,42.0,30.10,South,175,3.0,8.0,88,0.00,,,0.00,weatherlink.com 1.10,2013-04-23 23:56:00,
2013-04-23 20:11:00,44.8,42.0,30.09,SW,234,2.0,8.0,88,0.00,,,0.00,weatherlink.com 1.10,2013-04-24 00:11:00,
2013-04-23 20:26:00,44.7,41.0,30.09,West,274,3.0,8.0,88,0.00,,,0.00,weatherlink.com 1.10,2013-04-24 00:26:00,
2013-04-23 20:41:00,44.6,41.0,30.08,SSE,159,3.0,10.0,88,0.00,,,0.00,weatherlink.com 1.10,2013-04-24 00:41:00,
2013-04-23 20:56:00,44.5,42.0,30.08,SE,143,2.0,8.0,89,0.00,,,0.00,weatherlink.com 1.10,2013-04-24 00:56:00,
2013-04-23 21:11:00,44.5,42.0,30.09,SE,139,3.0,8.0,89,0.00,,,0.00,weatherlink.com 1.10,2013-04-24 01:11:00,
2013-04-23 21:26:00,44.6,42.0,30.08,South,183,2.0,6.0,89,0.00,,,0.00,weatherlink.com 1.10,2013-04-24 01:26:00,
2013-04-23 21:41:00,44.7,42.0,30.08,NW,314,0.0,5.0,89,0.00,,,0.00,weatherlink.com 1.10,2013-04-24 01:41:00,
2013-04-23 21:56:00,44.6,42.0,30.08,East,84,2.0,5.0,89,0.00,,,0.00,weatherlink.com 1.10,2013-04-24 01:56:00,
2013-04-23 22:11:00,44.4,41.0,30.07,SE,143,2.0,7.0,89,0.00,,,0.00,weatherlink.com 1.10,2013-04-24 02:11:00,
2013-04-23 22:26:00,44.3,41.0,30.06,NW,309,0.0,9.0,89,0.00,,,0.00,weatherlink.com 1.10,2013-04-24 02:26:00,
2013-04-23 22:41:00,44.3,41.0,30.05,WSW,246,3.0,9.0,89,0.00,,,0.00,weatherlink.com 1.10,2013-04-24 02:41:00,
2013-04-23 22:56:00,44.3,41.0,30.05,West,263,2.0,9.0,89,0.00,,,0.00,weatherlink.com 1.10,2013-04-24 02:56:00,
2013-04-23 23:11:00,44.3,41.0,30.05,South,185,2.0,5.0,89,0.00,,,0.00,weatherlink.com 1.10,2013-04-24 03:11:00,
2013-04-23 23:41:00,44.1,41.0,30.01,SW,226,4.0,11.0,89,0.00,,,0.00,weatherlink.com 1.10,2013-04-24 03:41:00,
2013-04-23 23:56:00,44.0,41.0,30.00,SE,136,2.0,7.0,89,0.00,,,0.00,weatherlink.com 1.10,2013-04-24 03:56:00,